Kirkland Lake, Canada
Current Conditions -  °F | °C
As of 2:00 AM on Thursday 23 Oct 2014 (Local Time) from CYXR Reporting Station
Clear Clear  
Wind Chill: 20°   Ceiling: Unl
Heat Index: 27°   Visibility: 9mi
Dew Point: 27°   Wind: 6mph
Humidity: 100%   Direction: 310°NW
Pressure: 30.28"   Gusts: NA
Location:  48.15°N, 80.04°W
Report Text: CYXR 230600Z AUTO 31005KT 9SM CLR M03/M03 A3028 RMK SLP266
Loading
Personal Weather Stations






























Interactive Weather Map
Tropical Storm Tracking
New forecast layout! Learn more

10-Day Weather Forecast

Advertisements
Track Severe Weather on mobile